CPC9 weather

Public forecast

Using degrees Celsius for public forecast. Weather courtesy of forecast.io.

Closest aviation weather report (METAR) to Huntsville (Memorial District Hospital) Heliport

Closest report is Muskoka Airport, 22.3 nm (41.4 km) S. Retrieved 2020/08/13 08:00 UTC (36 minutes ago):

CYQA 130800Z AUTO 00000KT 9SM CLR 13/13 A3016 RMK SLP213

Closest aviation forecast (TAF) to Huntsville (Memorial District Hospital) Heliport

Forecast is more than 12 hours old.

Closest forecast is Muskoka Airport, 22.3 nm (41.4 km) S. Retrieved 2020/08/12 20:00 UTC (13 hours ago):

TAF CYQA 121938Z 1220/1302 27008KT P6SM SKC BECMG 1222/1224 28005KT RMK FCST BASED ON AUTO OBS NXT FCST WILL BE ISSUED AT 131145Z